Time;durP1;ratioP1;P1;durP2;ratioP2;P2;SDS_P1;SDS_P2;PMS_P1;PMS_P2;Temp;Humidity;BMP_temperature;BMP_pressure;BME280_temperature;BME280_humidity;BME280_pressure;Samples;Min_cycle;Max_cycle;Signal;HPM_P1;HPM_P2
2024/01/24 00:02:07;;;;;;;1.58;1.20;;;6.30;99.90;;;;;;5077677;28;20212;-76
2024/01/24 00:04:34;;;;;;;7.15;1.60;;;6.20;99.90;;;;;;5081919;28;20691;-76
2024/01/24 00:07:06;;;;;;;2.80;1.10;;;6.10;99.90;;;;;;5085646;28;20190;-77
2024/01/24 00:09:33;;;;;;;5.00;1.45;;;6.10;99.90;;;;;;5084576;28;20204;-76
2024/01/24 00:14:54;;;;;;;2.10;1.45;;;6.00;99.90;;;;;;5025283;28;20661;-76
2024/01/24 00:17:20;;;;;;;2.83;1.20;;;6.10;99.90;;;;;;5026319;28;20194;-76
2024/01/24 00:22:44;;;;;;;2.90;1.30;;;6.10;99.90;;;;;;5006800;28;20202;-80
2024/01/24 00:30:33;;;;;;;2.92;1.30;;;6.00;99.90;;;;;;5001329;28;20300;-77
2024/01/24 00:33:01;;;;;;;3.80;1.50;;;6.00;99.90;;;;;;5081054;28;20193;-77
2024/01/24 00:35:29;;;;;;;3.30;1.50;;;6.00;99.90;;;;;;5080410;28;20200;-77
2024/01/24 00:37:59;;;;;;;3.47;1.45;;;6.00;99.90;;;;;;5082987;28;20247;-76
2024/01/24 00:40:26;;;;;;;3.08;1.50;;;6.10;99.90;;;;;;5080679;28;20657;-78
2024/01/24 00:42:53;;;;;;;3.05;1.30;;;6.10;99.90;;;;;;5077767;28;20235;-80
2024/01/24 00:48:07;;;;;;;2.40;1.20;;;6.30;99.90;;;;;;5018927;28;20214;-77
2024/01/24 00:50:34;;;;;;;2.63;1.30;;;6.30;99.90;;;;;;5021187;28;20195;-76
2024/01/24 00:56:04;;;;;;;2.45;1.58;;;6.20;99.90;;;;;;5048812;28;20750;-78
2024/01/24 01:03:52;;;;;;;1.85;1.48;;;6.10;99.90;;;;;;5075824;28;20222;-76
2024/01/24 01:06:50;;;;;;;3.85;1.45;;;6.10;99.90;;;;;;5077880;28;20202;-80
2024/01/24 01:09:18;;;;;;;3.22;1.30;;;6.20;99.90;;;;;;5084575;28;20212;-79
2024/01/24 01:11:54;;;;;;;1.63;1.23;;;6.30;99.90;;;;;;5084148;28;20219;-77
2024/01/24 01:14:20;;;;;;;2.80;1.10;;;6.30;99.90;;;;;;5063225;28;20193;-77
2024/01/24 01:16:55;;;;;;;2.70;1.33;;;6.40;99.90;;;;;;5073904;28;20209;-79
2024/01/24 01:22:21;;;;;;;1.20;1.10;;;6.60;99.90;;;;;;5079489;28;20208;-78
2024/01/24 01:24:49;;;;;;;3.17;1.35;;;6.80;99.90;;;;;;5082608;28;20669;-78
2024/01/24 01:35:18;;;;;;;0.90;0.85;;;7.50;99.90;;;;;;5078084;28;20199;-78
2024/01/24 01:37:51;;;;;;;1.63;1.25;;;7.80;99.90;;;;;;5079600;28;20194;-79
2024/01/24 01:40:31;;;;;;;1.00;1.00;;;8.20;99.90;;;;;;5081609;28;20236;-79
2024/01/24 01:45:41;;;;;;;0.95;0.82;;;8.60;97.90;;;;;;5004209;28;20768;-78
2024/01/24 01:48:32;;;;;;;1.50;0.80;;;8.80;97.30;;;;;;5066532;28;20278;-81
2024/01/24 01:53:59;;;;;;;1.98;1.15;;;9.20;95.90;;;;;;5079405;28;20203;-79
2024/01/24 01:56:28;;;;;;;1.65;1.00;;;9.30;95.20;;;;;;5086421;28;20196;-78
2024/01/24 01:58:55;;;;;;;0.90;0.90;;;9.40;94.80;;;;;;5083616;28;20207;-79
2024/01/24 02:01:30;;;;;;;1.60;0.88;;;9.60;94.30;;;;;;5088525;28;20196;-79
2024/01/24 02:03:56;;;;;;;1.13;0.90;;;9.70;94.10;;;;;;5082366;28;20242;-78
2024/01/24 02:09:09;;;;;;;0.77;0.77;;;9.90;93.40;;;;;;5075279;28;20250;-78
2024/01/24 02:12:02;;;;;;;0.93;0.70;;;10.00;92.80;;;;;;5083006;28;20221;-78
2024/01/24 02:14:51;;;;;;;1.13;0.98;;;10.20;92.20;;;;;;5083752;28;20213;-78
2024/01/24 02:17:17;;;;;;;0.82;0.82;;;10.30;91.90;;;;;;5084774;28;20204;-79
2024/01/24 02:19:44;;;;;;;1.42;0.80;;;10.40;91.90;;;;;;5078926;28;20309;-78
2024/01/24 02:25:00;;;;;;;1.33;0.60;;;10.50;91.70;;;;;;5055570;28;20228;-79
2024/01/24 02:36:14;;;;;;;0.65;0.65;;;10.70;91.00;;;;;;5079068;28;20201;-78
2024/01/24 02:38:50;;;;;;;0.90;0.90;;;10.80;90.50;;;;;;5076715;28;20196;-79
2024/01/24 02:41:19;;;;;;;1.27;0.80;;;10.80;90.50;;;;;;5082158;28;20299;-78
2024/01/24 02:49:07;;;;;;;0.80;0.80;;;10.80;90.90;;;;;;5087313;28;20229;-78
2024/01/24 02:51:37;;;;;;;1.58;1.20;;;10.80;91.10;;;;;;5090796;28;20203;-79
2024/01/24 02:54:12;;;;;;;1.40;0.98;;;10.80;91.00;;;;;;5082155;28;20212;-79
2024/01/24 02:57:08;;;;;;;0.90;0.90;;;10.80;90.90;;;;;;5080061;28;20204;-82
2024/01/24 02:59:41;;;;;;;1.75;0.80;;;10.90;90.80;;;;;;5084696;28;20197;-78
2024/01/24 03:02:57;;;;;;;0.93;0.80;;;10.90;90.60;;;;;;5081747;28;20205;-78
2024/01/24 03:05:24;;;;;;;1.58;0.70;;;10.90;90.50;;;;;;5079190;28;20221;-79
2024/01/24 03:08:03;;;;;;;1.40;1.00;;;11.00;90.50;;;;;;5087814;28;20204;-78
2024/01/24 03:13:20;;;;;;;1.00;0.90;;;11.00;90.50;;;;;;5024248;28;20209;-78
2024/01/24 03:24:23;;;;;;;2.03;0.90;;;10.70;91.40;;;;;;4988379;28;20626;-79
2024/01/24 03:26:49;;;;;;;0.80;0.70;;;10.80;91.30;;;;;;5023464;28;20322;-79
2024/01/24 03:29:25;;;;;;;0.95;0.90;;;10.90;91.10;;;;;;5087098;28;20193;-83
2024/01/24 03:34:35;;;;;;;1.00;1.00;;;10.90;91.30;;;;;;5078303;28;20211;-78
2024/01/24 03:37:14;;;;;;;1.30;0.93;;;11.00;91.60;;;;;;5085730;28;20192;-79
2024/01/24 03:39:41;;;;;;;1.70;0.95;;;11.10;91.00;;;;;;5084340;28;20197;-79
2024/01/24 03:42:08;;;;;;;2.30;0.98;;;11.10;91.10;;;;;;5085558;28;20209;-78
2024/01/24 03:44:39;;;;;;;1.00;0.90;;;11.20;90.90;;;;;;5085740;28;20700;-78
2024/01/24 03:47:06;;;;;;;1.08;0.98;;;11.30;90.60;;;;;;5075624;28;20196;-79
2024/01/24 03:49:33;;;;;;;0.98;0.90;;;11.30;90.60;;;;;;5091136;28;20197;-79
2024/01/24 03:54:40;;;;;;;1.05;1.02;;;11.30;90.60;;;;;;5079415;28;20199;-78
2024/01/24 03:59:54;;;;;;;2.42;0.70;;;11.40;90.60;;;;;;5023010;28;20198;-78
2024/01/24 04:02:21;;;;;;;0.73;0.73;;;11.50;90.60;;;;;;5028748;28;20198;-79
2024/01/24 04:04:51;;;;;;;0.60;0.60;;;11.50;90.60;;;;;;5073539;28;20232;-78
2024/01/24 04:07:27;;;;;;;0.70;0.70;;;11.50;90.60;;;;;;5082418;28;20196;-78
2024/01/24 04:09:54;;;;;;;0.80;0.80;;;11.60;90.70;;;;;;5077568;28;20197;-78
2024/01/24 04:12:21;;;;;;;2.47;0.90;;;11.60;90.70;;;;;;5088936;28;20197;-79
2024/01/24 04:14:48;;;;;;;0.95;0.82;;;11.70;90.70;;;;;;5085747;28;20645;-78
2024/01/24 04:17:20;;;;;;;1.15;0.82;;;11.70;90.70;;;;;;5083128;28;20211;-78
2024/01/24 04:22:27;;;;;;;2.83;1.08;;;11.70;90.70;;;;;;5073661;28;20319;-79
2024/01/24 04:24:54;;;;;;;1.17;0.80;;;11.80;90.70;;;;;;5087411;28;20311;-79
2024/01/24 04:27:21;;;;;;;0.80;0.80;;;11.90;90.70;;;;;;5081298;28;20200;-78
2024/01/24 04:29:48;;;;;;;1.58;0.88;;;12.00;90.20;;;;;;5086229;28;20200;-79
2024/01/24 04:32:14;;;;;;;0.65;0.65;;;12.00;90.40;;;;;;5081988;28;20200;-79
2024/01/24 04:34:46;;;;;;;1.25;1.05;;;12.00;90.10;;;;;;5086898;28;20729;-79
2024/01/24 04:42:54;;;;;;;0.75;0.75;;;12.20;89.70;;;;;;5025184;28;20576;-78
2024/01/24 04:45:21;;;;;;;0.82;0.82;;;12.30;89.50;;;;;;5022226;28;20238;-78
2024/01/24 04:50:35;;;;;;;0.70;0.70;;;12.40;89.10;;;;;;5092135;28;20201;-78
2024/01/24 04:53:02;;;;;;;1.83;1.25;;;12.50;88.50;;;;;;5076603;28;20287;-78
2024/01/24 04:58:09;;;;;;;1.92;0.80;;;12.60;87.80;;;;;;5082232;28;20205;-78
2024/01/24 05:00:36;;;;;;;0.90;0.90;;;12.60;87.00;;;;;;5082814;28;20200;-78
2024/01/24 05:03:03;;;;;;;1.73;1.20;;;12.60;86.40;;;;;;5080483;28;20219;-79
2024/01/24 05:05:51;;;;;;;1.05;0.80;;;12.70;85.60;;;;;;5083309;28;20228;-79
2024/01/24 05:11:36;;;;;;;1.08;1.08;;;12.70;85.60;;;;;;5044502;28;20206;-79
2024/01/24 05:14:02;;;;;;;2.63;1.00;;;12.70;85.10;;;;;;5046279;28;20209;-78
2024/01/24 05:19:22;;;;;;;0.90;0.90;;;12.60;85.70;;;;;;5074774;28;20208;-81
2024/01/24 05:22:05;;;;;;;1.42;0.68;;;12.80;84.40;;;;;;5081573;28;20645;-76
2024/01/24 05:27:13;;;;;;;1.10;1.00;;;12.80;84.80;;;;;;5078245;28;20205;-78
2024/01/24 05:32:33;;;;;;;0.85;0.70;;;12.80;84.00;;;;;;5034448;28;20605;-79
2024/01/24 05:37:42;;;;;;;0.77;0.77;;;12.80;84.40;;;;;;5084290;28;20196;-83
2024/01/24 05:40:10;;;;;;;2.22;1.00;;;12.90;84.30;;;;;;5080757;28;20200;-79
2024/01/24 05:42:37;;;;;;;1.23;1.05;;;12.90;84.10;;;;;;5079817;28;20196;-80
2024/01/24 05:45:05;;;;;;;0.77;0.77;;;13.00;83.60;;;;;;5085934;28;20221;-79
2024/01/24 05:47:32;;;;;;;1.00;1.00;;;13.10;82.80;;;;;;5079304;28;20197;-82
2024/01/24 05:49:59;;;;;;;1.17;0.93;;;13.00;83.30;;;;;;5077751;28;20204;-81
2024/01/24 05:52:26;;;;;;;1.00;0.90;;;13.00;83.90;;;;;;5080352;28;20194;-80
2024/01/24 05:54:57;;;;;;;0.80;0.80;;;12.90;84.10;;;;;;5081312;28;20204;-79
2024/01/24 05:57:24;;;;;;;0.80;0.80;;;13.00;84.00;;;;;;5076276;28;20705;-79
2024/01/24 05:59:50;;;;;;;0.77;0.77;;;13.00;84.10;;;;;;5080618;28;20197;-79
2024/01/24 06:02:18;;;;;;;1.10;0.70;;;13.00;83.70;;;;;;5078083;28;20202;-79
2024/01/24 06:04:45;;;;;;;0.98;0.93;;;12.90;84.10;;;;;;5080378;28;20303;-78
2024/01/24 06:07:13;;;;;;;1.02;0.90;;;13.00;83.90;;;;;;5081669;28;20200;-79
2024/01/24 06:09:40;;;;;;;2.83;0.90;;;12.90;84.00;;;;;;5080964;28;20232;-78
2024/01/24 06:12:09;;;;;;;1.20;0.88;;;13.00;83.60;;;;;;5081827;28;20205;-80
2024/01/24 06:14:39;;;;;;;0.95;0.90;;;12.90;83.90;;;;;;5081952;28;20207;-78
2024/01/24 06:17:07;;;;;;;1.30;0.95;;;12.80;84.40;;;;;;5084128;28;20568;-77
2024/01/24 06:19:46;;;;;;;1.58;1.00;;;12.80;84.40;;;;;;5085731;28;20657;-79
2024/01/24 06:22:13;;;;;;;1.58;1.00;;;12.80;84.40;;;;;;5074172;28;20211;-79
2024/01/24 06:24:40;;;;;;;1.20;1.10;;;12.70;84.40;;;;;;5083584;28;20239;-78
2024/01/24 06:27:08;;;;;;;1.27;0.98;;;12.80;84.20;;;;;;5082053;28;20197;-85
2024/01/24 06:32:52;;;;;;;1.50;1.08;;;12.70;83.90;;;;;;5005957;28;20777;-78
2024/01/24 06:35:19;;;;;;;1.30;0.80;;;12.80;83.30;;;;;;5028859;28;20283;-78
2024/01/24 06:37:46;;;;;;;1.77;1.00;;;12.80;84.00;;;;;;5083247;28;20197;-79
2024/01/24 06:40:14;;;;;;;0.70;0.70;;;12.80;83.20;;;;;;5087743;28;20215;-79
2024/01/24 06:42:43;;;;;;;1.13;0.80;;;12.80;83.10;;;;;;5083587;28;20218;-79
2024/01/24 06:45:10;;;;;;;2.28;0.80;;;12.70;83.60;;;;;;5084473;28;20273;-79
2024/01/24 06:47:49;;;;;;;1.13;1.02;;;12.70;83.30;;;;;;5080547;28;20260;-81
2024/01/24 06:50:17;;;;;;;2.10;0.70;;;12.90;82.40;;;;;;5087988;28;20192;-78
2024/01/24 06:55:37;;;;;;;0.73;0.73;;;12.80;81.90;;;;;;5059006;28;20197;-79
2024/01/24 07:00:50;;;;;;;2.15;0.80;;;12.80;82.40;;;;;;5082034;28;20204;-78
2024/01/24 07:03:16;;;;;;;1.50;0.93;;;12.70;82.50;;;;;;5077455;28;20194;-78
2024/01/24 07:05:43;;;;;;;0.85;0.85;;;12.70;82.60;;;;;;5078382;28;20228;-78
2024/01/24 07:08:12;;;;;;;1.30;0.90;;;12.70;82.40;;;;;;5073102;28;20568;-79
2024/01/24 07:13:28;;;;;;;0.88;0.77;;;12.70;81.90;;;;;;5077904;28;20200;-78
2024/01/24 07:18:38;;;;;;;1.30;1.10;;;12.70;82.60;;;;;;5012426;28;20226;-85
2024/01/24 07:24:18;;;;;;;1.20;1.10;;;12.70;82.10;;;;;;5077531;28;20204;-78
2024/01/24 07:29:45;;;;;;;0.98;0.90;;;12.80;81.60;;;;;;5081942;28;20681;-77
2024/01/24 07:32:30;;;;;;;1.10;1.00;;;12.80;81.40;;;;;;5083594;28;20202;-78
2024/01/24 07:37:38;;;;;;;0.73;0.73;;;12.80;81.30;;;;;;5042982;28;20201;-79
2024/01/24 07:40:27;;;;;;;1.98;1.40;;;12.90;81.30;;;;;;5081275;28;20645;-77
2024/01/24 07:45:56;;;;;;;1.40;0.95;;;12.90;81.10;;;;;;5084776;28;20262;-77
2024/01/24 07:48:23;;;;;;;1.63;0.93;;;12.80;81.20;;;;;;5085856;28;20208;-76
2024/01/24 07:54:03;;;;;;;1.88;1.00;;;12.80;81.70;;;;;;4935821;29;20578;-77
2024/01/24 07:59:36;;;;;;;1.30;0.95;;;12.80;81.40;;;;;;4919887;29;20221;-77
2024/01/24 08:02:28;;;;;;;0.80;0.75;;;12.80;80.60;;;;;;4913990;29;20235;-78
2024/01/24 08:05:01;;;;;;;0.80;0.80;;;12.90;80.50;;;;;;4911744;29;20604;-78
2024/01/24 08:07:28;;;;;;;1.10;0.75;;;12.90;80.60;;;;;;4920390;29;20201;-78
2024/01/24 08:12:37;;;;;;;1.05;0.90;;;12.80;80.20;;;;;;4922743;28;20217;-77
2024/01/24 08:15:05;;;;;;;1.30;1.20;;;12.80;80.20;;;;;;4991449;28;20211;-78
2024/01/24 08:17:33;;;;;;;1.73;0.90;;;12.90;79.70;;;;;;5010860;28;20208;-79
2024/01/24 08:25:22;;;;;;;0.80;0.80;;;12.90;79.80;;;;;;5081587;28;20723;-78
2024/01/24 08:33:36;;;;;;;0.90;0.80;;;13.00;79.30;;;;;;5025984;28;20210;-78
2024/01/24 08:44:11;;;;;;;1.63;1.20;;;13.10;79.50;;;;;;5027173;28;20289;-77
2024/01/24 08:49:22;;;;;;;1.17;0.98;;;13.10;79.70;;;;;;5011501;28;20202;-78
2024/01/24 08:54:40;;;;;;;3.35;1.23;;;12.90;80.90;;;;;;4951727;28;20211;-77
2024/01/24 08:57:10;;;;;;;1.20;1.10;;;12.90;81.40;;;;;;5002676;28;20285;-77
2024/01/24 09:11:56;;;;;;;2.45;0.90;;;12.70;86.30;;;;;;4944566;28;20213;-76
2024/01/24 09:15:03;;;;;;;1.20;1.10;;;12.70;87.70;;;;;;4949324;28;21020;-78
2024/01/24 09:17:30;;;;;;;1.45;1.23;;;12.60;88.90;;;;;;4945330;28;20224;-78
2024/01/24 09:20:04;;;;;;;1.20;1.02;;;12.60;89.60;;;;;;4977614;28;20213;-80
2024/01/24 09:22:47;;;;;;;1.17;0.82;;;12.60;90.40;;;;;;5077265;28;20652;-77
2024/01/24 09:27:56;;;;;;;1.67;0.98;;;12.60;90.20;;;;;;5074549;28;20213;-77
2024/01/24 09:30:22;;;;;;;1.60;1.00;;;12.70;90.00;;;;;;5085334;28;20207;-79
2024/01/24 09:32:49;;;;;;;0.90;0.90;;;12.60;90.20;;;;;;5089828;28;20197;-78
2024/01/24 09:35:17;;;;;;;1.65;0.73;;;12.50;90.40;;;;;;5079510;28;21113;-78
2024/01/24 09:37:46;;;;;;;1.02;0.93;;;12.70;89.00;;;;;;5089647;28;20225;-78
2024/01/24 09:40:15;;;;;;;1.70;1.10;;;12.70;88.00;;;;;;5084789;28;20661;-78
2024/01/24 09:42:44;;;;;;;1.30;1.05;;;12.80;87.90;;;;;;5086444;28;20205;-78
2024/01/24 09:45:44;;;;;;;2.75;1.20;;;12.90;87.60;;;;;;5077530;28;20344;-77
2024/01/24 09:54:40;;;;;;;1.42;1.05;;;13.30;84.60;;;;;;5026634;28;20241;-76
2024/01/24 09:57:09;;;;;;;2.55;1.13;;;13.50;81.70;;;;;;5052794;28;20664;-76
2024/01/24 09:59:38;;;;;;;1.52;0.90;;;13.50;81.50;;;;;;5086861;28;20554;-77
2024/01/24 10:05:21;;;;;;;1.88;1.40;;;13.50;81.40;;;;;;5001634;28;20325;-77
2024/01/24 10:10:30;;;;;;;1.45;0.80;;;13.40;81.60;;;;;;4997381;28;20198;-77
2024/01/24 10:12:57;;;;;;;0.85;0.85;;;13.40;81.20;;;;;;5005952;28;20195;-76
2024/01/24 10:19:24;;;;;;;2.33;0.98;;;13.40;81.00;;;;;;4954317;28;20295;-77
2024/01/24 10:22:06;;;;;;;1.13;0.82;;;13.50;79.20;;;;;;4947587;28;20264;-76
2024/01/24 10:25:00;;;;;;;1.55;1.10;;;13.60;78.20;;;;;;4935596;28;20198;-77
2024/01/24 10:30:18;;;;;;;2.03;0.90;;;13.90;73.60;;;;;;5052281;28;20685;-79
2024/01/24 10:36:09;;;;;;;2.35;1.00;;;14.10;68.80;;;;;;5024651;28;20729;-79
2024/01/24 10:38:44;;;;;;;2.58;1.10;;;14.20;66.00;;;;;;5022311;28;20194;-77
2024/01/24 10:41:15;;;;;;;1.42;1.15;;;14.10;64.50;;;;;;5011732;28;20574;-79
2024/01/24 10:44:06;;;;;;;1.45;1.10;;;14.10;65.00;;;;;;5031257;28;20194;-77
2024/01/24 10:46:36;;;;;;;1.55;1.20;;;14.20;64.60;;;;;;5022020;28;20266;-77
2024/01/24 10:52:10;;;;;;;2.33;1.02;;;14.20;63.00;;;;;;4987509;28;20564;-78
2024/01/24 10:54:40;;;;;;;1.65;0.70;;;14.20;63.80;;;;;;4994161;28;20192;-78
2024/01/24 10:59:51;;;;;;;3.47;1.20;;;14.20;64.50;;;;;;5081949;28;20231;-76
2024/01/24 11:02:37;;;;;;;2.15;1.00;;;14.10;65.20;;;;;;5081671;28;20673;-78
2024/01/24 11:05:07;;;;;;;1.10;0.85;;;14.20;64.30;;;;;;5087560;28;20220;-78
2024/01/24 11:07:38;;;;;;;2.20;0.88;;;14.10;64.00;;;;;;5085189;28;20240;-78
2024/01/24 11:10:18;;;;;;;2.05;0.93;;;14.10;63.00;;;;;;5081526;28;20193;-78
2024/01/24 11:12:45;;;;;;;2.80;1.13;;;14.20;63.00;;;;;;5087247;28;20212;-77
2024/01/24 11:15:14;;;;;;;2.08;1.00;;;14.20;62.10;;;;;;5088220;28;20216;-80
2024/01/24 11:17:42;;;;;;;1.23;0.80;;;14.30;60.50;;;;;;5087326;28;20197;-78
2024/01/24 11:20:11;;;;;;;3.17;1.00;;;14.40;59.90;;;;;;5090060;28;20227;-78
2024/01/24 11:22:38;;;;;;;0.80;0.80;;;14.40;60.20;;;;;;5079505;28;20200;-78
2024/01/24 11:25:06;;;;;;;1.00;0.98;;;14.40;57.70;;;;;;5078501;28;20211;-78
2024/01/24 11:27:37;;;;;;;0.80;0.80;;;14.40;58.80;;;;;;5086366;28;20221;-78
2024/01/24 11:33:24;;;;;;;1.00;0.90;;;14.30;57.90;;;;;;5073992;28;20665;-79
2024/01/24 11:35:53;;;;;;;1.10;0.80;;;14.40;56.20;;;;;;5079239;28;20199;-78
2024/01/24 11:38:34;;;;;;;0.95;0.93;;;14.30;57.30;;;;;;5077800;28;20587;-79
2024/01/24 11:41:03;;;;;;;0.80;0.80;;;14.30;56.90;;;;;;5087439;28;20197;-80
2024/01/24 11:43:34;;;;;;;1.02;0.90;;;14.30;57.60;;;;;;5083522;28;20203;-80
2024/01/24 11:46:43;;;;;;;1.73;0.95;;;14.30;56.60;;;;;;5087250;28;20303;-77
2024/01/24 11:49:24;;;;;;;1.60;0.63;;;14.20;56.20;;;;;;5081680;28;20284;-78
2024/01/24 11:52:01;;;;;;;2.33;0.80;;;14.30;55.70;;;;;;5088841;28;20193;-77
2024/01/24 11:54:28;;;;;;;2.50;1.20;;;14.30;56.10;;;;;;5083587;28;20193;-78
2024/01/24 11:56:55;;;;;;;1.38;0.98;;;14.20;56.10;;;;;;5089081;28;20204;-77
2024/01/24 11:59:22;;;;;;;3.63;0.77;;;14.30;54.90;;;;;;5087716;28;20201;-78
2024/01/24 12:01:50;;;;;;;1.50;0.80;;;14.40;54.90;;;;;;5080497;28;20193;-79
2024/01/24 12:04:17;;;;;;;1.00;1.00;;;14.30;53.00;;;;;;5082277;28;20220;-78
2024/01/24 12:06:50;;;;;;;2.17;0.90;;;14.30;53.40;;;;;;5080983;28;20229;-77
2024/01/24 12:09:17;;;;;;;1.65;1.10;;;14.30;53.10;;;;;;5078118;28;20201;-77
2024/01/24 12:11:46;;;;;;;1.80;0.90;;;14.10;53.60;;;;;;5080974;28;20196;-77
2024/01/24 12:14:13;;;;;;;1.92;0.90;;;14.10;53.70;;;;;;5080252;28;20198;-78
2024/01/24 12:16:40;;;;;;;0.90;0.90;;;14.10;54.80;;;;;;5074680;28;20721;-78
2024/01/24 12:19:09;;;;;;;1.48;0.90;;;14.20;53.20;;;;;;5084582;28;20216;-79
2024/01/24 12:21:36;;;;;;;1.08;0.80;;;14.30;54.10;;;;;;5085511;28;20193;-78
2024/01/24 12:24:06;;;;;;;2.25;0.98;;;14.30;54.00;;;;;;5087799;28;20209;-78
2024/01/24 12:26:33;;;;;;;1.10;1.00;;;14.30;53.40;;;;;;5079678;28;20345;-84
2024/01/24 12:29:00;;;;;;;2.58;0.80;;;14.30;54.70;;;;;;5059189;28;20201;-80
2024/01/24 12:31:29;;;;;;;1.60;1.13;;;14.20;55.00;;;;;;5083609;28;20296;-80
2024/01/24 12:33:56;;;;;;;1.52;0.88;;;14.20;55.70;;;;;;5091608;28;20196;-81
2024/01/24 12:36:25;;;;;;;2.80;1.15;;;14.10;55.90;;;;;;5086012;28;20197;-80
2024/01/24 12:38:54;;;;;;;1.00;0.90;;;14.20;56.20;;;;;;5079973;28;20197;-80
2024/01/24 12:41:21;;;;;;;2.25;0.90;;;14.20;56.00;;;;;;5061814;28;20201;-77
2024/01/24 12:43:48;;;;;;;1.10;0.80;;;14.20;56.80;;;;;;5086881;28;20201;-80
2024/01/24 12:46:14;;;;;;;1.92;0.90;;;14.10;57.50;;;;;;5082239;28;20213;-79
2024/01/24 12:48:42;;;;;;;1.20;0.90;;;14.20;57.20;;;;;;5079419;28;20205;-78
2024/01/24 12:51:09;;;;;;;0.85;0.85;;;14.20;57.90;;;;;;5087108;28;20200;-79
2024/01/24 12:53:38;;;;;;;1.63;1.00;;;14.10;57.80;;;;;;5080940;28;20192;-78
2024/01/24 12:56:06;;;;;;;0.75;0.75;;;14.10;58.40;;;;;;5088544;28;20657;-79
2024/01/24 12:58:33;;;;;;;1.08;0.95;;;14.00;58.40;;;;;;5080856;28;20197;-78
2024/01/24 13:01:00;;;;;;;0.90;0.90;;;13.90;59.30;;;;;;5074287;28;20220;-78
2024/01/24 13:03:27;;;;;;;0.82;0.80;;;13.90;58.80;;;;;;5078331;28;20193;-78
2024/01/24 13:05:54;;;;;;;3.22;1.00;;;13.80;60.20;;;;;;5081115;28;20713;-80
2024/01/24 13:08:21;;;;;;;1.77;1.65;;;13.80;61.20;;;;;;5082735;28;20692;-80
2024/01/24 13:10:52;;;;;;;1.05;0.95;;;13.90;61.30;;;;;;5066172;28;20249;-80
2024/01/24 13:13:19;;;;;;;2.53;1.00;;;13.90;61.30;;;;;;5060815;28;20309;-79
2024/01/24 13:15:46;;;;;;;0.93;0.80;;;13.90;62.00;;;;;;5082757;28;20205;-80
2024/01/24 13:18:16;;;;;;;2.60;0.98;;;13.80;63.30;;;;;;5064734;28;20208;-80
2024/01/24 13:20:44;;;;;;;1.33;0.98;;;13.80;64.10;;;;;;5079367;28;20201;-79
2024/01/24 13:23:18;;;;;;;1.17;1.00;;;14.00;64.60;;;;;;5084230;28;20184;-77
2024/01/24 13:25:45;;;;;;;1.15;0.85;;;14.10;64.10;;;;;;5084079;28;20737;-77
2024/01/24 13:28:13;;;;;;;2.70;1.13;;;14.20;63.30;;;;;;5086910;28;20551;-78
2024/01/24 13:30:43;;;;;;;0.60;0.60;;;14.20;63.60;;;;;;5081623;28;20217;-80
2024/01/24 13:33:10;;;;;;;1.88;0.82;;;14.20;63.60;;;;;;5079555;28;20215;-78
2024/01/24 13:35:37;;;;;;;2.38;0.80;;;14.10;64.90;;;;;;5080570;28;20283;-78
2024/01/24 13:38:04;;;;;;;2.25;0.77;;;14.10;65.30;;;;;;5079198;28;20200;-78
2024/01/24 13:40:31;;;;;;;1.73;0.88;;;14.00;65.60;;;;;;5081493;28;20642;-79
2024/01/24 13:42:58;;;;;;;1.25;0.85;;;14.00;66.70;;;;;;5081915;28;20208;-78
2024/01/24 13:45:26;;;;;;;0.88;0.88;;;14.00;67.80;;;;;;5087043;28;20210;-77
2024/01/24 13:50:46;;;;;;;0.95;0.85;;;14.10;67.00;;;;;;5039042;28;20580;-79
2024/01/24 13:53:13;;;;;;;1.10;0.90;;;14.00;66.60;;;;;;5081672;28;20203;-78
2024/01/24 13:55:40;;;;;;;0.95;0.85;;;14.10;67.20;;;;;;5075909;28;20204;-77
2024/01/24 14:00:52;;;;;;;0.90;0.90;;;14.20;65.70;;;;;;5031110;28;20230;-79
2024/01/24 14:03:21;;;;;;;1.02;0.90;;;14.20;63.50;;;;;;5029735;28;20765;-79
2024/01/24 14:05:48;;;;;;;0.70;0.70;;;14.20;63.00;;;;;;5084334;28;20220;-78
2024/01/24 14:08:16;;;;;;;1.23;0.75;;;14.20;62.80;;;;;;5088247;28;20239;-79
2024/01/24 14:11:02;;;;;;;1.77;1.30;;;14.10;63.50;;;;;;5077644;28;20220;-81
2024/01/24 14:13:29;;;;;;;1.95;1.13;;;14.10;63.20;;;;;;5076042;28;20242;-78
2024/01/24 14:15:58;;;;;;;0.88;0.85;;;14.10;63.00;;;;;;5078743;28;20665;-82
2024/01/24 14:18:24;;;;;;;1.42;0.63;;;14.00;64.70;;;;;;5078260;28;20201;-78
2024/01/24 14:20:51;;;;;;;1.33;0.88;;;13.90;64.60;;;;;;5074344;28;20209;-80
2024/01/24 14:26:18;;;;;;;0.65;0.63;;;13.80;75.30;;;;;;5026285;28;20803;-79
2024/01/24 14:28:45;;;;;;;0.80;0.80;;;13.80;75.30;;;;;;5024865;28;20227;-80
2024/01/24 14:31:13;;;;;;;0.98;0.98;;;13.80;74.30;;;;;;5082728;28;20664;-82
2024/01/24 14:33:40;;;;;;;0.73;0.70;;;13.80;71.80;;;;;;5084776;28;20192;-79
2024/01/24 14:36:12;;;;;;;0.85;0.85;;;13.80;70.60;;;;;;5084449;28;20207;-78
2024/01/24 14:39:29;;;;;;;1.13;0.90;;;13.80;71.80;;;;;;5085278;28;20205;-78
2024/01/24 14:41:56;;;;;;;0.90;0.85;;;13.80;71.50;;;;;;5082457;28;20192;-83
2024/01/24 14:44:23;;;;;;;1.05;0.80;;;13.70;71.40;;;;;;5084267;28;20212;-80
2024/01/24 14:46:52;;;;;;;0.90;0.80;;;13.70;70.90;;;;;;5088112;28;20680;-80
2024/01/24 14:49:18;;;;;;;0.80;0.80;;;13.50;72.90;;;;;;5087275;28;20204;-80
2024/01/24 14:51:45;;;;;;;1.83;0.82;;;13.50;74.50;;;;;;5082834;28;20201;-81
2024/01/24 14:54:15;;;;;;;0.60;0.60;;;13.50;74.20;;;;;;5066370;28;20189;-91
2024/01/24 14:56:50;;;;;;;1.00;0.85;;;13.60;74.90;;;;;;5074106;28;20188;-79
2024/01/24 14:59:17;;;;;;;0.88;0.70;;;13.50;80.10;;;;;;5086069;28;20193;-78
2024/01/24 15:01:44;;;;;;;0.80;0.80;;;13.20;86.80;;;;;;5079656;28;20721;-79
2024/01/24 15:04:13;;;;;;;1.00;0.90;;;12.90;90.40;;;;;;5084626;28;20277;-79
2024/01/24 15:06:40;;;;;;;1.88;1.60;;;12.90;90.40;;;;;;5083342;28;20193;-84
2024/01/24 15:09:07;;;;;;;1.35;0.90;;;12.80;90.90;;;;;;5088542;28;20720;-79
2024/01/24 15:11:35;;;;;;;0.95;0.80;;;12.80;90.90;;;;;;5082425;28;20718;-79
2024/01/24 15:14:02;;;;;;;1.13;0.77;;;12.90;91.00;;;;;;5085326;28;20204;-77
2024/01/24 15:16:29;;;;;;;1.35;1.10;;;12.90;91.00;;;;;;5085921;28;20206;-81
2024/01/24 15:18:56;;;;;;;1.02;0.88;;;13.00;90.20;;;;;;5082858;28;20209;-79
2024/01/24 15:21:31;;;;;;;0.80;0.80;;;13.00;90.00;;;;;;5082670;28;20197;-78
2024/01/24 15:23:57;;;;;;;1.10;0.93;;;12.90;90.40;;;;;;5087788;28;20204;-78
2024/01/24 15:26:24;;;;;;;1.00;0.77;;;12.90;90.90;;;;;;5088770;28;20562;-78
2024/01/24 15:28:51;;;;;;;1.02;0.75;;;12.80;90.20;;;;;;5084302;28;20212;-79
2024/01/24 15:31:18;;;;;;;2.20;0.90;;;12.80;90.40;;;;;;5086659;28;20221;-78
2024/01/24 15:33:45;;;;;;;1.20;1.10;;;12.70;90.20;;;;;;5081994;28;20200;-79
2024/01/24 15:36:12;;;;;;;1.25;1.02;;;12.70;90.20;;;;;;5083301;28;20197;-78
2024/01/24 15:38:40;;;;;;;0.82;0.82;;;12.80;88.80;;;;;;5084390;28;20205;-79
2024/01/24 15:41:07;;;;;;;0.93;0.90;;;12.90;87.80;;;;;;5069856;28;20201;-80
2024/01/24 15:43:37;;;;;;;1.67;0.77;;;13.00;87.90;;;;;;5088769;28;20196;-80
2024/01/24 15:46:04;;;;;;;1.63;0.80;;;12.90;90.20;;;;;;5079134;28;20224;-82
2024/01/24 15:48:31;;;;;;;1.05;1.00;;;12.70;93.30;;;;;;5076094;28;20217;-80
2024/01/24 15:50:58;;;;;;;1.10;1.00;;;12.40;96.30;;;;;;5084821;28;20204;-79
2024/01/24 15:53:24;;;;;;;1.13;0.90;;;12.20;99.20;;;;;;5084376;28;20197;-81
2024/01/24 15:55:53;;;;;;;1.48;1.00;;;11.90;99.90;;;;;;5083403;28;20540;-81
2024/01/24 15:58:20;;;;;;;2.67;1.20;;;11.80;99.90;;;;;;5081953;28;20684;-81
2024/01/24 16:00:47;;;;;;;1.25;1.00;;;11.70;99.90;;;;;;5087357;28;20217;-91
2024/01/24 16:03:14;;;;;;;1.50;1.20;;;11.50;99.90;;;;;;5076793;28;20652;-80
2024/01/24 16:05:45;;;;;;;1.30;0.90;;;11.40;99.90;;;;;;5086863;28;20224;-81
2024/01/24 16:08:11;;;;;;;1.50;1.00;;;11.40;99.90;;;;;;5074130;28;20304;-80
2024/01/24 16:10:38;;;;;;;2.78;1.05;;;11.30;99.90;;;;;;5082156;28;20275;-80
2024/01/24 16:13:06;;;;;;;2.00;1.00;;;11.20;99.90;;;;;;5086161;28;20207;-83
2024/01/24 16:15:33;;;;;;;3.30;1.25;;;11.20;99.90;;;;;;5082876;28;20205;-80
2024/01/24 16:18:00;;;;;;;3.25;1.00;;;11.10;99.90;;;;;;5081853;28;20197;-82
2024/01/24 16:20:28;;;;;;;1.58;1.10;;;10.90;99.90;;;;;;5079393;28;20201;-81
2024/01/24 16:22:55;;;;;;;1.15;1.00;;;10.90;99.90;;;;;;5082576;28;20205;-81
2024/01/24 16:25:22;;;;;;;2.10;1.30;;;10.80;99.90;;;;;;5080936;28;20197;-84
2024/01/24 16:27:49;;;;;;;1.65;0.88;;;10.60;99.90;;;;;;5078562;28;20231;-81
2024/01/24 16:30:17;;;;;;;2.08;0.95;;;10.40;99.90;;;;;;5082758;28;20213;-82
2024/01/24 16:32:50;;;;;;;2.55;0.98;;;10.30;99.90;;;;;;5089984;28;20195;-86
2024/01/24 16:35:17;;;;;;;3.40;1.17;;;10.10;99.90;;;;;;5087537;28;20207;-82
2024/01/24 16:37:44;;;;;;;2.47;1.00;;;9.90;99.90;;;;;;5081351;28;20197;-84
2024/01/24 16:40:11;;;;;;;3.45;1.17;;;9.80;99.90;;;;;;5080954;28;20192;-82
2024/01/24 16:42:38;;;;;;;2.50;0.90;;;9.70;99.90;;;;;;5084110;28;20196;-84
2024/01/24 16:45:06;;;;;;;2.75;1.20;;;9.60;99.90;;;;;;5039061;28;1186309;-83